createdAt,value
2022-10-11T00:02:06.642Z,98613.00
2022-10-11T00:04:48.976Z,98623.53
2022-10-11T00:07:38.632Z,98627.53
2022-10-11T00:10:20.938Z,98619.78
2022-10-11T00:13:10.721Z,98621.97
2022-10-11T00:15:52.945Z,98621.84
2022-10-11T00:18:44.634Z,98622.03
2022-10-11T00:21:26.957Z,98609.69
2022-10-11T00:24:15.657Z,98619.28
2022-10-11T00:26:57.957Z,98620.00
2022-10-11T00:29:46.646Z,98611.09
2022-10-11T00:32:28.899Z,98617.25
2022-10-11T00:35:17.643Z,98618.94
2022-10-11T00:37:59.978Z,98612.44
2022-10-11T00:40:48.873Z,98612.38
2022-10-11T00:43:34.302Z,98610.56
2022-10-11T00:46:39.300Z,98608.94
2022-10-11T00:49:29.006Z,98620.91
2022-10-11T00:52:31.995Z,98616.94
2022-10-11T00:55:24.936Z,98620.09
2022-10-11T00:58:14.631Z,98619.13
2022-10-11T01:01:10.550Z,98632.28
2022-10-11T01:03:59.956Z,98623.81
2022-10-11T01:06:42.920Z,98628.97
2022-10-11T01:09:31.632Z,98628.91
2022-10-11T01:12:32.642Z,98631.06
2022-10-11T01:15:46.734Z,98632.03
2022-10-11T01:19:22.928Z,98632.22
2022-10-11T01:22:17.686Z,98626.22
2022-10-11T01:25:11.927Z,98639.19
2022-10-11T01:28:03.691Z,98643.09
2022-10-11T01:30:51.970Z,98641.13
2022-10-11T01:33:40.639Z,98634.25
2022-10-11T01:36:59.103Z,98636.66
2022-10-11T01:40:00.672Z,98635.06
2022-10-11T01:42:44.635Z,98631.41
2022-10-11T01:45:35.684Z,98642.16
2022-10-11T01:48:17.840Z,98646.91
2022-10-11T01:51:09.638Z,98649.09
2022-10-11T01:54:01.019Z,98653.78
2022-10-11T01:57:14.115Z,98650.88
2022-10-11T02:00:21.921Z,98654.66
2022-10-11T02:03:26.679Z,98656.44
2022-10-11T02:06:18.963Z,98656.34
2022-10-11T02:09:39.625Z,98652.88
2022-10-11T02:12:38.639Z,98653.34
2022-10-11T02:15:24.205Z,98654.25
2022-10-11T02:18:16.703Z,98649.69
2022-10-11T02:21:09.736Z,98655.44
2022-10-11T02:24:09.705Z,98652.03
2022-10-11T02:27:00.905Z,98650.44
2022-10-11T02:29:47.653Z,98656.13
2022-10-11T02:32:37.956Z,98654.97
2022-10-11T02:35:20.616Z,98658.31
2022-10-11T02:38:31.934Z,98654.50
2022-10-11T02:41:50.614Z,98651.31
2022-10-11T02:44:44.855Z,98657.56
2022-10-11T02:47:33.621Z,98658.41
2022-10-11T02:50:23.110Z,98662.13
2022-10-11T02:53:04.796Z,98660.84
2022-10-11T02:55:53.914Z,98662.34
2022-10-11T02:58:35.631Z,98668.03
2022-10-11T03:01:30.512Z,98662.47
2022-10-11T03:04:19.645Z,98666.00
2022-10-11T03:07:08.548Z,98669.91
2022-10-11T03:09:57.707Z,98676.69
2022-10-11T03:12:39.906Z,98670.88
2022-10-11T03:15:28.631Z,98670.41
2022-10-11T03:18:11.913Z,98684.00
2022-10-11T03:21:00.687Z,98675.25
2022-10-11T03:23:43.914Z,98676.34
2022-10-11T03:26:32.623Z,98675.91
2022-10-11T03:29:21.536Z,98683.16
2022-10-11T03:32:11.604Z,98681.56
2022-10-11T03:35:00.633Z,98683.34
2022-10-11T03:37:42.861Z,98686.75
2022-10-11T03:40:31.652Z,98683.03
2022-10-11T03:43:20.983Z,98685.91
2022-10-11T03:46:04.035Z,98684.50
2022-10-11T03:48:46.828Z,98681.50
2022-10-11T03:51:35.692Z,98680.19
2022-10-11T03:54:17.859Z,98673.81
2022-10-11T03:57:06.632Z,98673.81
2022-10-11T03:59:49.305Z,98676.53
2022-10-11T04:02:39.393Z,98686.28
2022-10-11T04:05:21.819Z,98683.09
2022-10-11T04:08:12.290Z,98681.44
2022-10-11T04:11:01.904Z,98686.94
2022-10-11T04:13:44.657Z,98698.84
2022-10-11T04:16:34.096Z,98697.88
2022-10-11T04:19:15.625Z,98701.78
2022-10-11T04:22:05.078Z,98687.44
2022-10-11T04:24:47.610Z,98691.28
2022-10-11T04:27:37.902Z,98688.69
2022-10-11T04:30:20.652Z,98694.09
2022-10-11T04:33:12.386Z,98691.75
2022-10-11T04:35:54.635Z,98691.97
2022-10-11T04:38:43.929Z,98699.84
2022-10-11T04:41:25.685Z,98692.94
2022-10-11T04:44:14.468Z,98690.19
2022-10-11T04:46:57.625Z,98684.09
2022-10-11T04:49:47.090Z,98688.84
2022-10-11T04:52:29.674Z,98680.72
2022-10-11T04:55:18.943Z,98682.22
2022-10-11T04:58:01.633Z,98682.34
2022-10-11T05:00:51.416Z,98685.94
2022-10-11T05:03:40.611Z,98689.38
2022-10-11T05:06:23.081Z,98678.91
2022-10-11T05:09:11.637Z,98684.09
2022-10-11T05:11:54.224Z,98681.63
2022-10-11T05:14:43.970Z,98673.47
2022-10-11T05:17:26.048Z,98671.09
2022-10-11T05:20:15.684Z,98677.34
2022-10-11T05:22:57.879Z,98677.13
2022-10-11T05:25:46.684Z,98671.06
2022-10-11T05:28:28.975Z,98670.84
2022-10-11T05:31:17.609Z,98670.88
2022-10-11T05:34:01.012Z,98668.41
2022-10-11T05:36:48.605Z,98673.50
2022-10-11T05:39:38.688Z,98666.50
2022-10-11T05:42:28.034Z,98670.44
2022-10-11T05:45:10.635Z,98667.56
2022-10-11T05:47:59.191Z,98664.00
2022-10-11T05:50:41.616Z,98666.66
2022-10-11T05:53:29.977Z,98658.78
2022-10-11T05:56:13.624Z,98657.38
2022-10-11T05:59:02.657Z,98660.34
2022-10-11T06:01:57.621Z,98654.50
2022-10-11T06:04:52.624Z,98658.03
2022-10-11T06:07:45.788Z,98657.94
2022-10-11T06:10:28.697Z,98658.25
2022-10-11T06:13:17.928Z,98654.44
2022-10-11T06:16:00.941Z,98653.13
2022-10-11T06:18:48.957Z,98648.28
2022-10-11T06:21:31.610Z,98648.03
2022-10-11T06:24:20.984Z,98645.28
2022-10-11T06:27:03.670Z,98641.09
2022-10-11T06:29:51.899Z,98648.44
2022-10-11T06:32:34.691Z,98646.44
2022-10-11T06:35:22.926Z,98640.38
2022-10-11T06:38:04.688Z,98643.34
2022-10-11T06:40:52.953Z,98643.22
2022-10-11T06:43:34.649Z,98638.50
2022-10-11T06:46:25.056Z,98631.72
2022-10-11T06:49:07.596Z,98632.00
2022-10-11T06:51:55.958Z,98627.97
2022-10-11T06:54:43.891Z,98627.84
2022-10-11T06:57:33.097Z,98628.75
2022-10-11T07:00:15.643Z,98620.34
2022-10-11T07:03:03.954Z,98616.28
2022-10-11T07:05:46.596Z,98616.69
2022-10-11T07:08:34.908Z,98616.75
2022-10-11T07:11:23.627Z,98608.19
2022-10-11T07:14:13.899Z,98611.34
2022-10-11T07:16:56.617Z,98607.88
2022-10-11T07:19:44.885Z,98606.22
2022-10-11T07:22:26.621Z,98595.88
2022-10-11T07:25:15.902Z,98606.03
2022-10-11T07:27:58.584Z,98590.97
2022-10-11T07:30:50.896Z,98589.25
2022-10-11T07:33:33.598Z,98582.84
2022-10-11T07:36:24.812Z,98576.78
2022-10-11T07:39:07.611Z,98574.78
2022-10-11T07:41:55.898Z,98579.56
2022-10-11T07:44:38.603Z,98575.09
2022-10-11T07:47:26.897Z,98574.13
2022-10-11T07:50:09.690Z,98565.88
2022-10-11T07:52:57.999Z,98561.75
2022-10-11T07:55:47.671Z,98560.56
2022-10-11T07:58:35.957Z,98560.34
2022-10-11T08:01:19.736Z,98548.47
2022-10-11T08:04:09.059Z,98543.38
2022-10-11T08:06:53.480Z,98536.84
2022-10-11T08:09:35.819Z,98546.28
2022-10-11T08:12:24.678Z,98537.13
2022-10-11T08:15:13.905Z,98538.56
2022-10-11T08:17:56.592Z,98541.03
2022-10-11T08:20:41.387Z,98533.06
2022-10-11T08:23:34.943Z,98520.97
2022-10-11T08:26:23.931Z,98527.34
2022-10-11T08:29:09.667Z,98516.00
2022-10-11T08:31:51.972Z,98504.69
2022-10-11T08:34:40.764Z,98502.38
2022-10-11T08:37:29.540Z,98491.25
2022-10-11T08:40:13.639Z,98496.38
2022-10-11T08:43:08.946Z,98494.50
2022-10-11T08:46:05.801Z,98494.06
2022-10-11T08:48:56.941Z,98487.69
2022-10-11T08:51:46.669Z,98486.97
2022-10-11T08:54:52.950Z,98478.78
2022-10-11T08:57:39.608Z,98480.00
2022-10-11T09:00:22.736Z,98475.97
2022-10-11T09:03:19.621Z,98470.16
2022-10-11T09:06:26.346Z,98467.25
2022-10-11T09:09:36.658Z,98464.25
2022-10-11T09:12:51.881Z,98459.81
2022-10-11T09:16:14.670Z,98454.19
2022-10-11T09:19:27.939Z,98452.81
2022-10-11T09:22:28.112Z,98442.78
2022-10-11T09:25:37.995Z,98441.34
2022-10-11T09:28:31.545Z,98437.16
2022-10-11T09:31:20.601Z,98435.56
2022-10-11T09:34:04.076Z,98437.47
2022-10-11T09:37:08.589Z,98431.72
2022-10-11T09:40:02.885Z,98429.13
2022-10-11T09:42:51.680Z,98425.13
2022-10-11T09:45:33.888Z,98431.31
2022-10-11T09:48:36.634Z,98422.50
2022-10-11T09:51:30.912Z,98420.38
2022-10-11T09:54:19.588Z,98414.94
2022-10-11T09:57:01.860Z,98409.28
2022-10-11T09:59:51.610Z,98408.88
2022-10-11T10:02:41.624Z,98409.78
2022-10-11T10:05:35.608Z,98415.38
2022-10-11T10:08:19.752Z,98407.63
2022-10-11T10:11:12.680Z,98402.78
2022-10-11T10:13:59.947Z,98396.84
2022-10-11T10:16:48.613Z,98409.97
2022-10-11T10:19:30.895Z,98398.69
2022-10-11T10:22:35.664Z,98398.78
2022-10-11T10:25:33.922Z,98394.31
2022-10-11T10:28:40.798Z,98390.13
2022-10-11T10:31:55.273Z,98388.78
2022-10-11T10:35:07.676Z,98386.53
2022-10-11T10:38:05.146Z,98389.16
2022-10-11T10:41:00.600Z,98384.34
2022-10-11T10:43:45.871Z,98378.03
2022-10-11T10:46:54.587Z,98376.22
2022-10-11T10:53:18.603Z,98368.75
2022-10-11T10:56:12.901Z,98380.38
2022-10-11T10:59:29.645Z,98381.50
2022-10-11T11:02:41.153Z,98377.16
2022-10-11T11:05:56.597Z,98374.38
2022-10-11T11:09:00.585Z,98373.84
2022-10-11T11:12:30.612Z,98368.22
2022-10-11T11:15:32.632Z,98366.56
2022-10-11T11:18:34.552Z,98367.91
2022-10-11T11:21:23.624Z,98378.53
2022-10-11T11:24:29.896Z,98369.78
2022-10-11T11:27:34.601Z,98380.22
2022-10-11T11:30:31.929Z,98380.50
2022-10-11T11:33:49.114Z,98375.22
2022-10-11T11:36:56.960Z,98380.41
2022-10-11T11:39:51.601Z,98384.50
2022-10-11T11:42:40.587Z,98384.09
2022-10-11T11:45:25.905Z,98382.91
2022-10-11T11:48:21.635Z,98390.97
2022-10-11T11:51:42.169Z,98395.19
2022-10-11T11:54:39.585Z,98392.22
2022-10-11T11:57:35.933Z,98389.56
2022-10-11T12:00:35.638Z,98395.34
2022-10-11T12:03:41.578Z,98390.94
2022-10-11T12:07:04.051Z,98399.69
2022-10-11T12:09:51.441Z,98402.56
2022-10-11T12:12:43.607Z,98407.53
2022-10-11T12:15:33.862Z,98412.72
2022-10-11T12:18:24.652Z,98420.00
2022-10-11T12:21:30.447Z,98424.47
2022-10-11T12:24:31.607Z,98423.28
2022-10-11T12:27:52.593Z,98423.97
2022-10-11T12:30:56.927Z,98421.94
2022-10-11T12:33:41.588Z,98421.38
2022-10-11T12:37:06.571Z,98419.16
2022-10-11T12:40:03.590Z,98429.78
2022-10-11T12:43:23.950Z,98422.41
2022-10-11T12:46:26.662Z,98420.47
2022-10-11T12:49:37.280Z,98423.13
2022-10-11T12:52:45.582Z,98432.44
2022-10-11T12:55:47.021Z,98434.41
2022-10-11T12:58:33.608Z,98437.97
2022-10-11T13:01:33.026Z,98443.59
2022-10-11T13:04:24.632Z,98452.25
2022-10-11T13:07:11.984Z,98457.44
2022-10-11T13:10:02.586Z,98463.75
2022-10-11T13:12:51.077Z,98470.72
2022-10-11T13:15:39.621Z,98474.72
2022-10-11T13:18:23.910Z,98484.25
2022-10-11T13:21:27.607Z,98484.38
2022-10-11T13:24:18.114Z,98485.97
2022-10-11T13:27:06.576Z,98495.53
2022-10-11T13:29:54.043Z,98500.66
2022-10-11T13:32:44.600Z,98504.19
2022-10-11T13:35:47.911Z,98513.59
2022-10-11T13:38:42.597Z,98514.28
2022-10-11T13:41:25.189Z,98526.00
2022-10-11T13:44:14.024Z,98527.03
2022-10-11T13:46:57.045Z,98542.81
2022-10-11T13:49:47.594Z,98552.47
2022-10-11T13:52:32.115Z,98565.03
2022-10-11T13:55:44.593Z,98600.41
2022-10-11T13:58:53.906Z,98618.31
2022-10-11T14:01:48.759Z,98642.16
2022-10-11T14:04:50.034Z,98636.19
2022-10-11T14:07:37.610Z,98656.16
2022-10-11T14:10:22.701Z,98660.16
2022-10-11T14:13:19.599Z,98659.66
2022-10-11T14:16:14.040Z,98667.03
2022-10-11T14:19:24.613Z,98658.41
2022-10-11T14:22:14.603Z,98676.31
2022-10-11T14:25:03.576Z,98662.47
2022-10-11T14:27:45.988Z,98663.94
2022-10-11T14:30:39.582Z,98664.22
2022-10-11T14:33:22.804Z,98670.22
2022-10-11T14:36:11.588Z,98665.19
2022-10-11T14:39:00.547Z,98634.59
2022-10-11T14:41:49.610Z,98648.06
2022-10-11T14:44:38.599Z,98650.84
2022-10-11T14:47:24.887Z,98647.69
2022-10-11T14:50:31.585Z,98642.31
2022-10-11T14:53:14.883Z,98625.97
2022-10-11T14:56:03.790Z,98624.41
2022-10-11T14:58:46.050Z,98639.97
2022-10-11T15:01:34.633Z,98652.69
2022-10-11T15:04:24.302Z,98689.34
2022-10-11T15:07:07.585Z,98670.25
2022-10-11T15:09:49.748Z,98665.78
2022-10-11T15:12:38.590Z,98665.84
2022-10-11T15:15:24.254Z,98644.66
2022-10-11T15:18:14.576Z,98656.91
2022-10-11T15:20:57.201Z,98656.28
2022-10-11T15:23:45.580Z,98656.16
2022-10-11T15:26:37.570Z,98660.53
2022-10-11T15:29:29.632Z,98653.69
2022-10-11T15:32:11.980Z,98651.81
2022-10-11T15:35:00.581Z,98652.38
2022-10-11T15:37:50.504Z,98659.88
2022-10-11T15:40:49.629Z,98644.44
2022-10-11T15:43:38.622Z,98648.34
2022-10-11T15:46:23.850Z,98650.78
2022-10-11T15:49:20.590Z,98665.25
2022-10-11T15:52:02.901Z,98666.81
2022-10-11T15:54:51.607Z,98652.28
2022-10-11T15:57:33.882Z,98668.69
2022-10-11T16:00:22.622Z,98665.31
2022-10-11T16:03:06.966Z,98661.81
2022-10-11T16:05:55.612Z,98668.56
2022-10-11T16:08:38.057Z,98657.03
2022-10-11T16:11:26.621Z,98656.19
2022-10-11T16:14:09.075Z,98653.72
2022-10-11T16:17:02.629Z,98656.28
2022-10-11T16:19:51.568Z,98650.41
2022-10-11T16:22:40.928Z,98651.66
2022-10-11T16:25:23.643Z,98658.47
2022-10-11T16:28:13.878Z,98665.16
2022-10-11T16:30:55.584Z,98660.47
2022-10-11T16:33:48.175Z,98651.25
2022-10-11T16:36:43.577Z,98652.41
2022-10-11T16:39:25.822Z,98653.16
2022-10-11T16:42:14.629Z,98656.47
2022-10-11T16:45:02.877Z,98653.13
2022-10-11T16:47:45.582Z,98651.31
2022-10-11T16:50:28.080Z,98666.72
2022-10-11T16:53:16.575Z,98652.66
2022-10-11T16:56:05.971Z,98644.09
2022-10-11T16:58:47.884Z,98639.03
2022-10-11T17:01:37.586Z,98638.72
2022-10-11T17:04:25.848Z,98639.69
2022-10-11T17:07:08.576Z,98627.72
2022-10-11T17:09:59.050Z,98640.00
2022-10-11T17:12:49.215Z,98647.78
2022-10-11T17:15:38.593Z,98631.38
2022-10-11T17:18:20.853Z,98649.78
2022-10-11T17:21:10.581Z,98656.59
2022-10-11T17:23:52.930Z,98637.31
2022-10-11T17:26:42.566Z,98646.13
2022-10-11T17:29:25.407Z,98641.84
2022-10-11T17:32:14.672Z,98635.25
2022-10-11T17:34:58.423Z,98625.75
2022-10-11T17:37:48.647Z,98622.19
2022-10-11T17:40:30.854Z,98615.72
2022-10-11T17:43:19.643Z,98608.66
2022-10-11T17:46:10.035Z,98617.75
2022-10-11T17:49:02.582Z,98607.69
2022-10-11T17:54:40.172Z,98605.34
2022-10-11T17:57:22.631Z,98604.44
2022-10-11T18:00:13.809Z,98594.44
2022-10-11T18:03:08.625Z,98573.09
2022-10-11T18:05:56.848Z,98565.13
2022-10-11T18:08:40.542Z,98568.84
2022-10-11T18:11:30.141Z,98559.41
2022-10-11T18:14:12.616Z,98566.72
2022-10-11T18:17:00.977Z,98558.25
2022-10-11T18:19:44.540Z,98555.66
2022-10-11T18:22:26.900Z,98555.94
2022-10-11T18:25:15.556Z,98557.56
2022-10-11T18:28:04.942Z,98554.22
2022-10-11T18:30:52.562Z,98556.16
2022-10-11T18:33:42.230Z,98555.53
2022-10-11T18:36:27.877Z,98553.41
2022-10-11T18:39:13.565Z,98547.78
2022-10-11T18:42:03.616Z,98539.75
2022-10-11T18:44:54.292Z,98536.31
2022-10-11T18:47:37.639Z,98532.25
2022-10-11T18:50:26.881Z,98535.50
2022-10-11T18:53:10.640Z,98552.25
2022-10-11T18:55:58.913Z,98557.19
2022-10-11T18:58:42.660Z,98551.88
2022-10-11T19:01:39.172Z,98541.59
2022-10-11T19:04:36.553Z,98531.69
2022-10-11T19:07:25.619Z,98525.84
2022-10-11T19:10:08.986Z,98521.72
2022-10-11T19:12:57.645Z,98518.25
2022-10-11T19:15:44.002Z,98525.13
2022-10-11T19:18:33.559Z,98522.53
2022-10-11T19:21:18.893Z,98517.34
2022-10-11T19:24:07.542Z,98518.53
2022-10-11T19:27:02.325Z,98515.81
2022-10-11T19:29:50.806Z,98512.25
2022-10-11T19:32:32.611Z,98516.63
2022-10-11T19:35:20.998Z,98522.09
2022-10-11T19:38:04.049Z,98516.63
2022-10-11T19:40:52.691Z,98516.84
2022-10-11T19:43:35.086Z,98520.53
2022-10-11T19:49:30.832Z,98513.28
2022-10-11T19:52:20.605Z,98511.44
2022-10-11T19:55:03.824Z,98518.03
2022-10-11T19:57:52.560Z,98515.72
2022-10-11T20:00:34.852Z,98516.44
2022-10-11T20:03:29.590Z,98521.53
2022-10-11T20:06:18.931Z,98526.28
2022-10-11T20:09:27.306Z,98523.63
2022-10-11T20:12:10.560Z,98520.81
2022-10-11T20:14:52.834Z,98533.47
2022-10-11T20:17:56.558Z,98533.41
2022-10-11T20:20:45.534Z,98530.22
2022-10-11T20:23:34.822Z,98544.78
2022-10-11T20:26:23.549Z,98566.31
2022-10-11T20:29:05.723Z,98572.50
2022-10-11T20:31:54.548Z,98564.97
2022-10-11T20:34:40.462Z,98576.06
2022-10-11T20:37:29.764Z,98582.38
2022-10-11T20:40:18.868Z,98554.03
2022-10-11T20:43:01.844Z,98551.44
2022-10-11T20:45:50.870Z,98572.56
2022-10-11T20:48:33.533Z,98572.81
2022-10-11T20:51:15.776Z,98554.84
2022-10-11T20:54:05.588Z,98581.47
2022-10-11T20:56:53.844Z,98582.81
2022-10-11T20:59:36.538Z,98572.50
2022-10-11T21:02:19.159Z,98582.72
2022-10-11T21:05:08.555Z,98570.59
2022-10-11T21:07:51.374Z,98578.00
2022-10-11T21:10:40.593Z,98573.19
2022-10-11T21:13:29.842Z,98578.22
2022-10-11T21:16:18.613Z,98584.25
2022-10-11T21:19:08.892Z,98587.28
2022-10-11T21:21:53.809Z,98587.91
2022-10-11T21:24:41.868Z,98596.38
2022-10-11T21:27:23.531Z,98579.69
2022-10-11T21:30:12.834Z,98587.75
2022-10-11T21:32:55.523Z,98599.03
2022-10-11T21:35:46.822Z,98586.53
2022-10-11T21:38:28.580Z,98594.13
2022-10-11T21:41:24.052Z,98592.47
2022-10-11T21:44:16.509Z,98593.56
2022-10-11T21:47:07.501Z,98597.66
2022-10-11T21:49:56.390Z,98603.09
2022-10-11T21:52:54.069Z,98604.50
2022-10-11T21:55:37.549Z,98607.47
2022-10-11T21:58:25.818Z,98593.47
2022-10-11T22:01:08.564Z,98598.97
2022-10-11T22:04:03.405Z,98608.75
2022-10-11T22:07:08.561Z,98597.94
2022-10-11T22:09:56.889Z,98605.09
2022-10-11T22:12:39.589Z,98609.81
2022-10-11T22:15:27.814Z,98615.31
2022-10-11T22:18:10.527Z,98618.28
2022-10-11T22:20:53.079Z,98630.00
2022-10-11T22:23:41.574Z,98626.34
2022-10-11T22:26:33.832Z,98626.38
2022-10-11T22:29:16.530Z,98634.38
2022-10-11T22:31:58.752Z,98631.03
2022-10-11T22:34:47.526Z,98636.00
2022-10-11T22:37:29.697Z,98637.44
2022-10-11T22:40:18.575Z,98638.56
2022-10-11T22:43:06.800Z,98642.38
2022-10-11T22:45:49.517Z,98656.47
2022-10-11T22:48:38.439Z,98654.78
2022-10-11T22:51:27.540Z,98652.06
2022-10-11T22:54:16.636Z,98655.09
2022-10-11T22:56:59.800Z,98655.63
2022-10-11T22:59:48.524Z,98659.66
2022-10-11T23:02:30.824Z,98663.69
2022-10-11T23:05:25.534Z,98665.63
2022-10-11T23:08:10.478Z,98673.66
2022-10-11T23:10:59.516Z,98665.88
2022-10-11T23:13:41.723Z,98657.72
2022-10-11T23:16:30.572Z,98655.59
2022-10-11T23:19:12.709Z,98659.78
2022-10-11T23:22:01.556Z,98670.25
2022-10-11T23:24:50.518Z,98670.66
2022-10-11T23:27:32.871Z,98672.41
2022-10-11T23:30:22.534Z,98665.00
2022-10-11T23:33:04.833Z,98676.50
2022-10-11T23:35:53.519Z,98684.69
2022-10-11T23:38:35.859Z,98692.28
2022-10-11T23:41:24.516Z,98698.78
2022-10-11T23:44:06.829Z,98704.34
2022-10-11T23:46:55.857Z,98703.53
2022-10-11T23:49:37.820Z,98714.22
2022-10-11T23:52:26.581Z,98712.44
2022-10-11T23:55:09.245Z,98704.56
2022-10-11T23:57:58.571Z,98712.94
